sensor_id;sensor_type;location;lat;lon;timestamp;P1;durP1;ratioP1;P2;durP2;ratioP2
21733;SDS011;11029;47.820;10.534;2023-08-20T00:01:59;7.20;;;5.07;;
21733;SDS011;11029;47.820;10.534;2023-08-20T00:04:28;8.27;;;5.78;;
21733;SDS011;11029;47.820;10.534;2023-08-20T00:07:00;7.50;;;6.13;;
21733;SDS011;11029;47.820;10.534;2023-08-20T00:09:27;9.80;;;6.28;;
21733;SDS011;11029;47.820;10.534;2023-08-20T00:11:54;8.32;;;5.75;;
21733;SDS011;11029;47.820;10.534;2023-08-20T00:14:21;8.15;;;6.07;;
21733;SDS011;11029;47.820;10.534;2023-08-20T00:17:21;13.20;;;6.20;;
21733;SDS011;11029;47.820;10.534;2023-08-20T00:19:50;7.32;;;5.63;;
21733;SDS011;11029;47.820;10.534;2023-08-20T00:22:17;8.15;;;6.25;;
21733;SDS011;11029;47.820;10.534;2023-08-20T00:24:44;7.55;;;6.18;;
21733;SDS011;11029;47.820;10.534;2023-08-20T00:27:11;6.32;;;5.40;;
21733;SDS011;11029;47.820;10.534;2023-08-20T00:29:38;6.75;;;5.15;;
21733;SDS011;11029;47.820;10.534;2023-08-20T00:32:05;7.22;;;5.35;;
21733;SDS011;11029;47.820;10.534;2023-08-20T00:34:32;9.88;;;5.80;;
21733;SDS011;11029;47.820;10.534;2023-08-20T00:36:59;15.60;;;6.07;;
21733;SDS011;11029;47.820;10.534;2023-08-20T00:39:25;6.53;;;5.05;;
21733;SDS011;11029;47.820;10.534;2023-08-20T00:41:52;5.35;;;4.75;;
21733;SDS011;11029;47.820;10.534;2023-08-20T00:44:19;9.27;;;5.18;;
21733;SDS011;11029;47.820;10.534;2023-08-20T00:46:47;8.43;;;5.00;;
21733;SDS011;11029;47.820;10.534;2023-08-20T00:49:14;10.45;;;5.00;;
21733;SDS011;11029;47.820;10.534;2023-08-20T00:51:41;5.20;;;4.70;;
21733;SDS011;11029;47.820;10.534;2023-08-20T00:54:08;6.07;;;5.47;;
21733;SDS011;11029;47.820;10.534;2023-08-20T00:56:36;9.02;;;5.65;;
21733;SDS011;11029;47.820;10.534;2023-08-20T00:59:03;11.02;;;6.07;;
21733;SDS011;11029;47.820;10.534;2023-08-20T01:01:31;5.75;;;5.13;;
21733;SDS011;11029;47.820;10.534;2023-08-20T01:03:58;11.85;;;5.57;;
21733;SDS011;11029;47.820;10.534;2023-08-20T01:09:22;6.75;;;5.30;;
21733;SDS011;11029;47.820;10.534;2023-08-20T01:11:52;6.85;;;5.70;;
21733;SDS011;11029;47.820;10.534;2023-08-20T01:14:23;6.68;;;5.63;;
21733;SDS011;11029;47.820;10.534;2023-08-20T01:16:50;5.63;;;4.88;;
21733;SDS011;11029;47.820;10.534;2023-08-20T01:19:18;5.90;;;4.90;;
21733;SDS011;11029;47.820;10.534;2023-08-20T01:27:42;6.68;;;5.13;;
21733;SDS011;11029;47.820;10.534;2023-08-20T01:30:16;5.80;;;5.20;;
21733;SDS011;11029;47.820;10.534;2023-08-20T01:32:48;7.63;;;5.00;;
21733;SDS011;11029;47.820;10.534;2023-08-20T01:35:17;7.65;;;5.45;;
21733;SDS011;11029;47.820;10.534;2023-08-20T01:37:44;8.18;;;5.05;;
21733;SDS011;11029;47.820;10.534;2023-08-20T01:40:11;6.72;;;5.35;;
21733;SDS011;11029;47.820;10.534;2023-08-20T01:42:38;9.27;;;6.20;;
21733;SDS011;11029;47.820;10.534;2023-08-20T01:45:06;8.30;;;5.97;;
21733;SDS011;11029;47.820;10.534;2023-08-20T01:47:33;9.27;;;5.60;;
21733;SDS011;11029;47.820;10.534;2023-08-20T01:50:01;7.13;;;5.50;;
21733;SDS011;11029;47.820;10.534;2023-08-20T01:52:33;6.13;;;5.43;;
21733;SDS011;11029;47.820;10.534;2023-08-20T01:55:00;7.65;;;5.50;;
21733;SDS011;11029;47.820;10.534;2023-08-20T01:57:27;7.72;;;5.93;;
21733;SDS011;11029;47.820;10.534;2023-08-20T01:59:54;6.75;;;5.70;;
21733;SDS011;11029;47.820;10.534;2023-08-20T02:02:21;7.63;;;5.27;;
21733;SDS011;11029;47.820;10.534;2023-08-20T02:04:48;6.50;;;5.35;;
21733;SDS011;11029;47.820;10.534;2023-08-20T02:07:14;6.35;;;5.55;;
21733;SDS011;11029;47.820;10.534;2023-08-20T02:09:41;6.57;;;5.50;;
21733;SDS011;11029;47.820;10.534;2023-08-20T02:12:08;5.72;;;5.15;;
21733;SDS011;11029;47.820;10.534;2023-08-20T02:14:35;5.93;;;5.22;;
21733;SDS011;11029;47.820;10.534;2023-08-20T02:17:02;6.65;;;5.53;;
21733;SDS011;11029;47.820;10.534;2023-08-20T02:19:30;6.63;;;5.68;;
21733;SDS011;11029;47.820;10.534;2023-08-20T02:21:56;8.05;;;6.00;;
21733;SDS011;11029;47.820;10.534;2023-08-20T02:24:25;6.63;;;5.80;;
21733;SDS011;11029;47.820;10.534;2023-08-20T02:26:52;8.55;;;5.25;;
21733;SDS011;11029;47.820;10.534;2023-08-20T02:29:18;7.50;;;5.45;;
21733;SDS011;11029;47.820;10.534;2023-08-20T02:31:45;7.35;;;5.10;;
21733;SDS011;11029;47.820;10.534;2023-08-20T02:34:14;7.22;;;5.30;;
21733;SDS011;11029;47.820;10.534;2023-08-20T02:36:41;6.25;;;5.47;;
21733;SDS011;11029;47.820;10.534;2023-08-20T02:39:08;7.18;;;5.57;;
21733;SDS011;11029;47.820;10.534;2023-08-20T02:41:35;8.07;;;5.37;;
21733;SDS011;11029;47.820;10.534;2023-08-20T02:44:05;6.80;;;5.20;;
21733;SDS011;11029;47.820;10.534;2023-08-20T02:46:31;6.03;;;5.10;;
21733;SDS011;11029;47.820;10.534;2023-08-20T02:48:58;6.25;;;5.40;;
21733;SDS011;11029;47.820;10.534;2023-08-20T02:51:26;7.68;;;5.38;;
21733;SDS011;11029;47.820;10.534;2023-08-20T02:53:53;8.38;;;5.30;;
21733;SDS011;11029;47.820;10.534;2023-08-20T02:56:20;5.93;;;5.43;;
21733;SDS011;11029;47.820;10.534;2023-08-20T02:58:47;9.57;;;5.55;;
21733;SDS011;11029;47.820;10.534;2023-08-20T03:01:20;5.70;;;4.85;;
21733;SDS011;11029;47.820;10.534;2023-08-20T03:03:48;6.85;;;5.80;;
21733;SDS011;11029;47.820;10.534;2023-08-20T03:06:15;8.13;;;5.75;;
21733;SDS011;11029;47.820;10.534;2023-08-20T03:08:42;6.63;;;5.93;;
21733;SDS011;11029;47.820;10.534;2023-08-20T03:11:09;6.97;;;5.85;;
21733;SDS011;11029;47.820;10.534;2023-08-20T03:13:36;7.03;;;5.50;;
21733;SDS011;11029;47.820;10.534;2023-08-20T03:16:03;6.53;;;5.38;;
21733;SDS011;11029;47.820;10.534;2023-08-20T03:18:30;5.72;;;5.03;;
21733;SDS011;11029;47.820;10.534;2023-08-20T03:20:57;7.55;;;5.00;;
21733;SDS011;11029;47.820;10.534;2023-08-20T03:23:24;8.93;;;5.72;;
21733;SDS011;11029;47.820;10.534;2023-08-20T03:25:51;7.55;;;5.43;;
21733;SDS011;11029;47.820;10.534;2023-08-20T03:28:18;9.70;;;5.75;;
21733;SDS011;11029;47.820;10.534;2023-08-20T03:30:46;8.35;;;5.30;;
21733;SDS011;11029;47.820;10.534;2023-08-20T03:33:16;6.35;;;5.00;;
21733;SDS011;11029;47.820;10.534;2023-08-20T03:35:45;5.30;;;4.60;;
21733;SDS011;11029;47.820;10.534;2023-08-20T03:38:12;5.95;;;4.90;;
21733;SDS011;11029;47.820;10.534;2023-08-20T03:40:39;5.95;;;4.70;;
21733;SDS011;11029;47.820;10.534;2023-08-20T03:43:08;6.03;;;5.43;;
21733;SDS011;11029;47.820;10.534;2023-08-20T03:45:35;6.43;;;5.07;;
21733;SDS011;11029;47.820;10.534;2023-08-20T03:48:02;5.18;;;4.68;;
21733;SDS011;11029;47.820;10.534;2023-08-20T03:50:29;7.70;;;4.85;;
21733;SDS011;11029;47.820;10.534;2023-08-20T03:52:56;7.18;;;4.93;;
21733;SDS011;11029;47.820;10.534;2023-08-20T03:55:23;9.02;;;5.13;;
21733;SDS011;11029;47.820;10.534;2023-08-20T03:57:51;7.05;;;5.03;;
21733;SDS011;11029;47.820;10.534;2023-08-20T04:00:18;6.82;;;5.30;;
21733;SDS011;11029;47.820;10.534;2023-08-20T04:02:45;8.48;;;5.40;;
21733;SDS011;11029;47.820;10.534;2023-08-20T04:05:12;5.85;;;5.30;;
21733;SDS011;11029;47.820;10.534;2023-08-20T04:07:39;7.10;;;4.97;;
21733;SDS011;11029;47.820;10.534;2023-08-20T04:10:07;6.65;;;5.35;;
21733;SDS011;11029;47.820;10.534;2023-08-20T04:12:35;6.60;;;4.90;;
21733;SDS011;11029;47.820;10.534;2023-08-20T04:15:02;5.95;;;4.65;;
21733;SDS011;11029;47.820;10.534;2023-08-20T04:17:29;6.53;;;5.23;;
21733;SDS011;11029;47.820;10.534;2023-08-20T04:19:56;8.20;;;5.07;;
21733;SDS011;11029;47.820;10.534;2023-08-20T04:22:23;6.50;;;5.80;;
21733;SDS011;11029;47.820;10.534;2023-08-20T04:24:51;5.40;;;4.90;;
21733;SDS011;11029;47.820;10.534;2023-08-20T04:27:19;6.07;;;5.38;;
21733;SDS011;11029;47.820;10.534;2023-08-20T04:29:45;6.30;;;5.00;;
21733;SDS011;11029;47.820;10.534;2023-08-20T04:32:13;5.80;;;4.93;;
21733;SDS011;11029;47.820;10.534;2023-08-20T04:34:40;6.15;;;5.30;;
21733;SDS011;11029;47.820;10.534;2023-08-20T04:37:06;5.93;;;5.15;;
21733;SDS011;11029;47.820;10.534;2023-08-20T04:39:33;5.68;;;4.90;;
21733;SDS011;11029;47.820;10.534;2023-08-20T04:42:00;6.90;;;4.68;;
21733;SDS011;11029;47.820;10.534;2023-08-20T04:44:27;5.20;;;4.70;;
21733;SDS011;11029;47.820;10.534;2023-08-20T04:46:55;5.43;;;4.50;;
21733;SDS011;11029;47.820;10.534;2023-08-20T04:49:22;5.30;;;4.80;;
21733;SDS011;11029;47.820;10.534;2023-08-20T04:51:49;6.63;;;5.20;;
21733;SDS011;11029;47.820;10.534;2023-08-20T04:54:16;5.50;;;4.90;;
21733;SDS011;11029;47.820;10.534;2023-08-20T04:56:44;5.18;;;4.68;;
21733;SDS011;11029;47.820;10.534;2023-08-20T04:59:12;7.53;;;5.20;;
21733;SDS011;11029;47.820;10.534;2023-08-20T05:02:02;8.77;;;4.97;;
21733;SDS011;11029;47.820;10.534;2023-08-20T05:04:38;4.93;;;4.53;;
21733;SDS011;11029;47.820;10.534;2023-08-20T05:07:06;4.80;;;4.40;;
21733;SDS011;11029;47.820;10.534;2023-08-20T05:09:33;6.88;;;4.80;;
21733;SDS011;11029;47.820;10.534;2023-08-20T05:12:00;6.80;;;5.00;;
21733;SDS011;11029;47.820;10.534;2023-08-20T05:14:27;7.32;;;4.85;;
21733;SDS011;11029;47.820;10.534;2023-08-20T05:16:55;6.60;;;4.75;;
21733;SDS011;11029;47.820;10.534;2023-08-20T05:19:22;6.50;;;5.00;;
21733;SDS011;11029;47.820;10.534;2023-08-20T05:21:49;4.93;;;4.47;;
21733;SDS011;11029;47.820;10.534;2023-08-20T05:24:16;5.10;;;4.60;;
21733;SDS011;11029;47.820;10.534;2023-08-20T05:26:43;5.78;;;4.80;;
21733;SDS011;11029;47.820;10.534;2023-08-20T05:29:10;5.93;;;4.90;;
21733;SDS011;11029;47.820;10.534;2023-08-20T05:31:37;6.15;;;4.43;;
21733;SDS011;11029;47.820;10.534;2023-08-20T05:34:04;4.75;;;4.30;;
21733;SDS011;11029;47.820;10.534;2023-08-20T05:36:31;5.82;;;5.10;;
21733;SDS011;11029;47.820;10.534;2023-08-20T05:38:58;5.28;;;4.78;;
21733;SDS011;11029;47.820;10.534;2023-08-20T05:41:25;5.65;;;4.63;;
21733;SDS011;11029;47.820;10.534;2023-08-20T05:43:52;6.20;;;5.03;;
21733;SDS011;11029;47.820;10.534;2023-08-20T05:46:19;7.38;;;5.00;;
21733;SDS011;11029;47.820;10.534;2023-08-20T05:48:46;5.10;;;4.60;;
21733;SDS011;11029;47.820;10.534;2023-08-20T05:51:13;9.07;;;5.32;;
21733;SDS011;11029;47.820;10.534;2023-08-20T05:53:40;5.97;;;4.70;;
21733;SDS011;11029;47.820;10.534;2023-08-20T05:56:07;5.45;;;4.85;;
21733;SDS011;11029;47.820;10.534;2023-08-20T05:58:35;8.55;;;5.30;;
21733;SDS011;11029;47.820;10.534;2023-08-20T06:01:01;6.05;;;4.75;;
21733;SDS011;11029;47.820;10.534;2023-08-20T06:03:28;8.25;;;5.60;;
21733;SDS011;11029;47.820;10.534;2023-08-20T06:05:57;6.50;;;4.83;;
21733;SDS011;11029;47.820;10.534;2023-08-20T06:08:29;6.95;;;4.70;;
21733;SDS011;11029;47.820;10.534;2023-08-20T06:10:56;6.70;;;6.00;;
21733;SDS011;11029;47.820;10.534;2023-08-20T06:13:22;7.88;;;6.07;;
21733;SDS011;11029;47.820;10.534;2023-08-20T06:15:49;7.63;;;6.20;;
21733;SDS011;11029;47.820;10.534;2023-08-20T06:18:16;7.13;;;6.10;;
21733;SDS011;11029;47.820;10.534;2023-08-20T06:20:43;6.72;;;5.90;;
21733;SDS011;11029;47.820;10.534;2023-08-20T06:23:09;7.15;;;5.50;;
21733;SDS011;11029;47.820;10.534;2023-08-20T06:25:37;5.35;;;4.85;;
21733;SDS011;11029;47.820;10.534;2023-08-20T06:28:04;5.33;;;4.83;;
21733;SDS011;11029;47.820;10.534;2023-08-20T06:30:31;7.50;;;5.07;;
21733;SDS011;11029;47.820;10.534;2023-08-20T06:32:58;5.35;;;4.85;;
21733;SDS011;11029;47.820;10.534;2023-08-20T06:35:25;5.68;;;4.72;;
21733;SDS011;11029;47.820;10.534;2023-08-20T07:12:07;6.63;;;5.15;;
21733;SDS011;11029;47.820;10.534;2023-08-20T07:14:34;5.60;;;4.88;;
21733;SDS011;11029;47.820;10.534;2023-08-20T07:17:01;5.15;;;4.65;;
21733;SDS011;11029;47.820;10.534;2023-08-20T07:19:29;5.63;;;4.82;;
21733;SDS011;11029;47.820;10.534;2023-08-20T07:21:55;4.80;;;4.40;;
21733;SDS011;11029;47.820;10.534;2023-08-20T07:24:22;4.90;;;4.20;;
21733;SDS011;11029;47.820;10.534;2023-08-20T07:26:52;4.40;;;4.00;;
21733;SDS011;11029;47.820;10.534;2023-08-20T07:29:21;6.38;;;4.22;;
21733;SDS011;11029;47.820;10.534;2023-08-20T07:31:50;4.25;;;3.90;;
21733;SDS011;11029;47.820;10.534;2023-08-20T07:34:17;3.90;;;3.60;;
21733;SDS011;11029;47.820;10.534;2023-08-20T07:36:45;4.30;;;3.90;;
21733;SDS011;11029;47.820;10.534;2023-08-20T07:39:13;4.13;;;3.72;;
21733;SDS011;11029;47.820;10.534;2023-08-20T09:47:07;5.82;;;4.10;;
21733;SDS011;11029;47.820;10.534;2023-08-20T09:49:36;6.45;;;4.18;;
21733;SDS011;11029;47.820;10.534;2023-08-20T09:52:10;4.25;;;3.85;;
21733;SDS011;11029;47.820;10.534;2023-08-20T09:54:52;5.60;;;3.33;;
21733;SDS011;11029;47.820;10.534;2023-08-20T09:57:31;3.67;;;3.28;;
21733;SDS011;11029;47.820;10.534;2023-08-20T10:00:01;7.28;;;3.45;;
21733;SDS011;11029;47.820;10.534;2023-08-20T10:02:38;5.25;;;2.97;;
21733;SDS011;11029;47.820;10.534;2023-08-20T10:05:06;9.10;;;4.15;;
21733;SDS011;11029;47.820;10.534;2023-08-20T10:07:34;5.88;;;3.20;;
21733;SDS011;11029;47.820;10.534;2023-08-20T10:10:06;5.95;;;3.40;;
21733;SDS011;11029;47.820;10.534;2023-08-20T10:12:34;4.78;;;3.53;;
21733;SDS011;11029;47.820;10.534;2023-08-20T10:15:02;7.53;;;3.20;;
21733;SDS011;11029;47.820;10.534;2023-08-20T10:17:30;5.88;;;3.40;;
21733;SDS011;11029;47.820;10.534;2023-08-20T10:20:01;5.05;;;3.65;;
21733;SDS011;11029;47.820;10.534;2023-08-20T10:25:07;4.13;;;3.72;;
21733;SDS011;11029;47.820;10.534;2023-08-20T10:27:36;4.80;;;3.80;;
21733;SDS011;11029;47.820;10.534;2023-08-20T10:32:45;6.20;;;3.47;;
21733;SDS011;11029;47.820;10.534;2023-08-20T10:35:17;4.40;;;3.10;;
21733;SDS011;11029;47.820;10.534;2023-08-20T13:48:55;4.60;;;2.70;;
21733;SDS011;11029;47.820;10.534;2023-08-20T13:51:22;4.95;;;3.10;;
21733;SDS011;11029;47.820;10.534;2023-08-20T13:53:49;3.83;;;2.70;;
21733;SDS011;11029;47.820;10.534;2023-08-20T13:56:15;4.88;;;2.67;;
21733;SDS011;11029;47.820;10.534;2023-08-20T13:58:42;5.03;;;2.30;;
21733;SDS011;11029;47.820;10.534;2023-08-20T14:01:09;2.83;;;2.58;;
21733;SDS011;11029;47.820;10.534;2023-08-20T14:06:23;2.78;;;2.42;;
21733;SDS011;11029;47.820;10.534;2023-08-20T14:08:49;2.78;;;2.38;;
21733;SDS011;11029;47.820;10.534;2023-08-20T14:11:16;7.10;;;2.85;;
21733;SDS011;11029;47.820;10.534;2023-08-20T14:13:43;3.08;;;2.55;;
21733;SDS011;11029;47.820;10.534;2023-08-20T14:16:10;3.60;;;2.78;;
21733;SDS011;11029;47.820;10.534;2023-08-20T14:18:37;6.72;;;2.70;;
21733;SDS011;11029;47.820;10.534;2023-08-20T14:21:03;5.53;;;2.67;;
21733;SDS011;11029;47.820;10.534;2023-08-20T14:25:57;5.68;;;2.35;;
21733;SDS011;11029;47.820;10.534;2023-08-20T14:28:24;4.25;;;2.80;;
21733;SDS011;11029;47.820;10.534;2023-08-20T14:30:50;4.82;;;2.10;;
21733;SDS011;11029;47.820;10.534;2023-08-20T14:33:19;6.18;;;2.90;;
21733;SDS011;11029;47.820;10.534;2023-08-20T14:35:47;2.78;;;2.30;;
21733;SDS011;11029;47.820;10.534;2023-08-20T14:38:14;4.65;;;2.33;;
21733;SDS011;11029;47.820;10.534;2023-08-20T15:51:55;1.83;;;1.70;;
21733;SDS011;11029;47.820;10.534;2023-08-20T16:11:30;6.13;;;2.38;;
21733;SDS011;11029;47.820;10.534;2023-08-20T16:13:57;6.07;;;2.30;;
21733;SDS011;11029;47.820;10.534;2023-08-20T16:16:24;4.68;;;2.10;;
21733;SDS011;11029;47.820;10.534;2023-08-20T16:18:52;4.47;;;1.92;;
21733;SDS011;11029;47.820;10.534;2023-08-20T16:21:19;5.32;;;2.25;;
21733;SDS011;11029;47.820;10.534;2023-08-20T16:43:20;6.55;;;2.20;;
21733;SDS011;11029;47.820;10.534;2023-08-20T16:45:53;4.65;;;2.20;;
21733;SDS011;11029;47.820;10.534;2023-08-20T16:48:21;5.03;;;2.28;;
21733;SDS011;11029;47.820;10.534;2023-08-20T16:50:48;2.50;;;2.28;;
21733;SDS011;11029;47.820;10.534;2023-08-20T17:22:48;5.45;;;2.10;;
21733;SDS011;11029;47.820;10.534;2023-08-20T17:25:15;2.45;;;1.90;;
21733;SDS011;11029;47.820;10.534;2023-08-20T17:27:45;4.63;;;2.20;;
21733;SDS011;11029;47.820;10.534;2023-08-20T17:30:13;4.50;;;2.10;;
21733;SDS011;11029;47.820;10.534;2023-08-20T17:32:39;6.50;;;2.72;;
21733;SDS011;11029;47.820;10.534;2023-08-20T17:35:06;4.97;;;2.10;;
21733;SDS011;11029;47.820;10.534;2023-08-20T17:37:35;3.85;;;2.20;;
21733;SDS011;11029;47.820;10.534;2023-08-20T17:40:05;3.63;;;2.10;;
21733;SDS011;11029;47.820;10.534;2023-08-20T17:42:36;3.65;;;2.17;;
21733;SDS011;11029;47.820;10.534;2023-08-20T17:45:04;5.23;;;2.23;;
21733;SDS011;11029;47.820;10.534;2023-08-20T17:47:32;6.80;;;2.50;;
21733;SDS011;11029;47.820;10.534;2023-08-20T17:49:58;5.27;;;2.90;;
21733;SDS011;11029;47.820;10.534;2023-08-20T17:52:25;3.75;;;3.00;;
21733;SDS011;11029;47.820;10.534;2023-08-20T17:54:52;4.85;;;3.83;;
21733;SDS011;11029;47.820;10.534;2023-08-20T17:57:19;6.40;;;3.47;;
21733;SDS011;11029;47.820;10.534;2023-08-20T18:14:29;3.40;;;3.10;;
21733;SDS011;11029;47.820;10.534;2023-08-20T18:16:56;7.50;;;3.17;;
21733;SDS011;11029;47.820;10.534;2023-08-20T18:19:23;8.95;;;3.47;;
21733;SDS011;11029;47.820;10.534;2023-08-20T18:21:50;4.53;;;3.30;;
21733;SDS011;11029;47.820;10.534;2023-08-20T18:24:17;8.10;;;3.40;;
21733;SDS011;11029;47.820;10.534;2023-08-20T18:26:44;7.05;;;3.50;;
21733;SDS011;11029;47.820;10.534;2023-08-20T18:29:10;6.97;;;3.40;;
21733;SDS011;11029;47.820;10.534;2023-08-20T18:31:37;8.10;;;3.50;;
21733;SDS011;11029;47.820;10.534;2023-08-20T18:34:04;7.95;;;3.92;;
21733;SDS011;11029;47.820;10.534;2023-08-20T18:36:33;7.15;;;3.67;;
21733;SDS011;11029;47.820;10.534;2023-08-20T18:39:00;7.72;;;3.70;;
21733;SDS011;11029;47.820;10.534;2023-08-20T18:41:30;5.93;;;4.63;;
21733;SDS011;11029;47.820;10.534;2023-08-20T18:43:57;10.13;;;5.27;;
21733;SDS011;11029;47.820;10.534;2023-08-20T18:46:24;6.70;;;4.47;;
21733;SDS011;11029;47.820;10.534;2023-08-20T18:48:51;9.32;;;4.38;;
21733;SDS011;11029;47.820;10.534;2023-08-20T18:51:20;7.38;;;4.20;;
21733;SDS011;11029;47.820;10.534;2023-08-20T18:53:48;5.00;;;3.70;;
21733;SDS011;11029;47.820;10.534;2023-08-20T18:56:14;8.55;;;4.43;;
21733;SDS011;11029;47.820;10.534;2023-08-20T18:58:41;9.77;;;4.23;;
21733;SDS011;11029;47.820;10.534;2023-08-20T19:01:08;7.25;;;4.30;;
21733;SDS011;11029;47.820;10.534;2023-08-20T19:03:35;9.70;;;4.10;;
21733;SDS011;11029;47.820;10.534;2023-08-20T19:06:02;7.13;;;5.45;;
21733;SDS011;11029;47.820;10.534;2023-08-20T19:08:29;9.98;;;5.30;;
21733;SDS011;11029;47.820;10.534;2023-08-20T19:11:02;10.73;;;5.25;;
21733;SDS011;11029;47.820;10.534;2023-08-20T19:13:29;8.60;;;5.13;;
21733;SDS011;11029;47.820;10.534;2023-08-20T19:15:56;7.65;;;4.78;;
21733;SDS011;11029;47.820;10.534;2023-08-20T19:18:23;7.00;;;4.30;;
21733;SDS011;11029;47.820;10.534;2023-08-20T19:20:51;8.10;;;4.43;;
21733;SDS011;11029;47.820;10.534;2023-08-20T19:23:19;6.15;;;4.63;;
21733;SDS011;11029;47.820;10.534;2023-08-20T19:25:47;8.02;;;5.20;;
21733;SDS011;11029;47.820;10.534;2023-08-20T19:28:15;8.38;;;5.25;;
21733;SDS011;11029;47.820;10.534;2023-08-20T19:30:45;8.88;;;5.30;;
21733;SDS011;11029;47.820;10.534;2023-08-20T19:33:13;7.90;;;5.35;;
21733;SDS011;11029;47.820;10.534;2023-08-20T19:35:40;8.60;;;4.18;;
21733;SDS011;11029;47.820;10.534;2023-08-20T19:38:08;7.63;;;4.50;;
21733;SDS011;11029;47.820;10.534;2023-08-20T19:40:36;8.93;;;5.30;;
21733;SDS011;11029;47.820;10.534;2023-08-20T19:43:03;7.27;;;4.23;;
21733;SDS011;11029;47.820;10.534;2023-08-20T19:45:31;4.38;;;3.90;;
21733;SDS011;11029;47.820;10.534;2023-08-20T19:47:58;6.73;;;5.13;;
21733;SDS011;11029;47.820;10.534;2023-08-20T19:50:25;7.53;;;5.40;;
21733;SDS011;11029;47.820;10.534;2023-08-20T19:52:53;8.00;;;5.35;;
21733;SDS011;11029;47.820;10.534;2023-08-20T19:55:20;10.35;;;5.55;;
21733;SDS011;11029;47.820;10.534;2023-08-20T19:57:47;7.22;;;4.72;;
21733;SDS011;11029;47.820;10.534;2023-08-20T20:00:14;9.07;;;5.40;;
21733;SDS011;11029;47.820;10.534;2023-08-20T20:02:42;7.18;;;5.57;;
21733;SDS011;11029;47.820;10.534;2023-08-20T20:05:10;10.35;;;6.25;;
21733;SDS011;11029;47.820;10.534;2023-08-20T20:07:40;11.55;;;8.00;;
21733;SDS011;11029;47.820;10.534;2023-08-20T20:10:09;10.88;;;5.95;;
21733;SDS011;11029;47.820;10.534;2023-08-20T20:12:37;15.93;;;9.32;;
21733;SDS011;11029;47.820;10.534;2023-08-20T20:15:07;20.33;;;10.55;;
21733;SDS011;11029;47.820;10.534;2023-08-20T20:17:35;13.57;;;7.15;;
21733;SDS011;11029;47.820;10.534;2023-08-20T20:20:05;8.97;;;5.20;;
21733;SDS011;11029;47.820;10.534;2023-08-20T20:22:38;8.38;;;4.88;;
21733;SDS011;11029;47.820;10.534;2023-08-20T20:25:06;7.38;;;4.63;;
21733;SDS011;11029;47.820;10.534;2023-08-20T20:27:34;6.40;;;4.40;;
21733;SDS011;11029;47.820;10.534;2023-08-20T20:30:04;5.45;;;4.70;;
21733;SDS011;11029;47.820;10.534;2023-08-20T20:32:32;6.17;;;4.43;;
21733;SDS011;11029;47.820;10.534;2023-08-20T20:35:01;6.53;;;4.35;;
21733;SDS011;11029;47.820;10.534;2023-08-20T20:37:29;7.15;;;5.40;;
21733;SDS011;11029;47.820;10.534;2023-08-20T20:39:57;6.25;;;4.93;;
21733;SDS011;11029;47.820;10.534;2023-08-20T20:42:24;5.95;;;4.63;;
21733;SDS011;11029;47.820;10.534;2023-08-20T20:44:51;8.07;;;5.30;;
21733;SDS011;11029;47.820;10.534;2023-08-20T20:47:19;7.90;;;5.30;;
21733;SDS011;11029;47.820;10.534;2023-08-20T20:49:46;6.55;;;4.65;;
21733;SDS011;11029;47.820;10.534;2023-08-20T20:52:13;8.57;;;4.72;;
21733;SDS011;11029;47.820;10.534;2023-08-20T20:54:42;6.15;;;4.90;;
21733;SDS011;11029;47.820;10.534;2023-08-20T20:57:09;7.97;;;5.07;;
21733;SDS011;11029;47.820;10.534;2023-08-20T20:59:36;5.95;;;4.70;;
21733;SDS011;11029;47.820;10.534;2023-08-20T21:02:03;7.03;;;4.95;;
21733;SDS011;11029;47.820;10.534;2023-08-20T21:04:31;6.90;;;5.50;;
21733;SDS011;11029;47.820;10.534;2023-08-20T21:06:58;5.43;;;4.93;;
21733;SDS011;11029;47.820;10.534;2023-08-20T21:09:25;7.90;;;5.53;;
21733;SDS011;11029;47.820;10.534;2023-08-20T21:11:53;6.65;;;5.18;;
21733;SDS011;11029;47.820;10.534;2023-08-20T21:14:20;5.75;;;5.00;;
21733;SDS011;11029;47.820;10.534;2023-08-20T21:16:50;7.53;;;5.20;;
21733;SDS011;11029;47.820;10.534;2023-08-20T21:19:17;7.60;;;4.72;;
21733;SDS011;11029;47.820;10.534;2023-08-20T21:21:44;8.25;;;4.80;;
21733;SDS011;11029;47.820;10.534;2023-08-20T21:24:11;5.80;;;4.73;;
21733;SDS011;11029;47.820;10.534;2023-08-20T21:26:38;6.30;;;4.55;;
21733;SDS011;11029;47.820;10.534;2023-08-20T21:29:06;7.72;;;5.20;;
21733;SDS011;11029;47.820;10.534;2023-08-20T21:31:33;6.32;;;5.00;;
21733;SDS011;11029;47.820;10.534;2023-08-20T21:34:00;8.43;;;5.13;;
21733;SDS011;11029;47.820;10.534;2023-08-20T21:36:28;8.60;;;4.90;;
21733;SDS011;11029;47.820;10.534;2023-08-20T21:38:55;12.05;;;5.18;;
21733;SDS011;11029;47.820;10.534;2023-08-20T21:41:23;10.38;;;5.05;;
21733;SDS011;11029;47.820;10.534;2023-08-20T21:43:50;7.55;;;4.70;;
21733;SDS011;11029;47.820;10.534;2023-08-20T21:46:17;5.38;;;4.32;;
21733;SDS011;11029;47.820;10.534;2023-08-20T21:48:44;8.70;;;5.00;;
21733;SDS011;11029;47.820;10.534;2023-08-20T21:51:12;6.88;;;4.95;;
21733;SDS011;11029;47.820;10.534;2023-08-20T21:53:39;7.18;;;4.68;;
21733;SDS011;11029;47.820;10.534;2023-08-20T21:56:06;6.93;;;4.80;;
21733;SDS011;11029;47.820;10.534;2023-08-20T21:58:34;8.23;;;4.50;;
21733;SDS011;11029;47.820;10.534;2023-08-20T22:01:01;5.80;;;4.95;;
21733;SDS011;11029;47.820;10.534;2023-08-20T22:03:30;6.97;;;4.60;;
21733;SDS011;11029;47.820;10.534;2023-08-20T22:05:59;5.85;;;5.18;;
21733;SDS011;11029;47.820;10.534;2023-08-20T22:08:27;5.45;;;4.53;;
21733;SDS011;11029;47.820;10.534;2023-08-20T22:10:55;7.32;;;4.32;;
21733;SDS011;11029;47.820;10.534;2023-08-20T22:13:23;7.68;;;4.65;;
21733;SDS011;11029;47.820;10.534;2023-08-20T22:15:51;6.22;;;4.53;;
21733;SDS011;11029;47.820;10.534;2023-08-20T22:18:18;6.45;;;4.78;;
21733;SDS011;11029;47.820;10.534;2023-08-20T22:20:46;5.53;;;4.70;;
21733;SDS011;11029;47.820;10.534;2023-08-20T22:23:13;7.30;;;4.82;;
21733;SDS011;11029;47.820;10.534;2023-08-20T22:25:43;8.00;;;5.40;;
21733;SDS011;11029;47.820;10.534;2023-08-20T22:28:11;7.43;;;5.30;;
21733;SDS011;11029;47.820;10.534;2023-08-20T22:30:38;7.10;;;5.10;;
21733;SDS011;11029;47.820;10.534;2023-08-20T22:33:06;8.05;;;4.90;;
21733;SDS011;11029;47.820;10.534;2023-08-20T22:35:33;6.28;;;4.47;;
21733;SDS011;11029;47.820;10.534;2023-08-20T22:38:07;4.70;;;4.25;;
21733;SDS011;11029;47.820;10.534;2023-08-20T22:40:35;8.00;;;4.70;;
21733;SDS011;11029;47.820;10.534;2023-08-20T22:43:03;11.15;;;4.97;;
21733;SDS011;11029;47.820;10.534;2023-08-20T22:45:31;6.43;;;4.82;;
21733;SDS011;11029;47.820;10.534;2023-08-20T22:47:59;4.63;;;4.20;;
21733;SDS011;11029;47.820;10.534;2023-08-20T22:50:27;6.65;;;4.32;;
21733;SDS011;11029;47.820;10.534;2023-08-20T22:52:55;5.43;;;4.30;;
21733;SDS011;11029;47.820;10.534;2023-08-20T22:55:22;6.00;;;4.78;;
21733;SDS011;11029;47.820;10.534;2023-08-20T22:57:49;6.78;;;4.88;;
21733;SDS011;11029;47.820;10.534;2023-08-20T23:00:16;6.50;;;5.07;;
21733;SDS011;11029;47.820;10.534;2023-08-20T23:02:47;6.00;;;4.93;;
21733;SDS011;11029;47.820;10.534;2023-08-20T23:05:14;7.35;;;5.00;;
21733;SDS011;11029;47.820;10.534;2023-08-20T23:07:41;6.30;;;5.25;;
21733;SDS011;11029;47.820;10.534;2023-08-20T23:10:08;8.02;;;4.93;;
21733;SDS011;11029;47.820;10.534;2023-08-20T23:12:35;6.35;;;4.63;;
21733;SDS011;11029;47.820;10.534;2023-08-20T23:15:03;6.50;;;4.60;;
21733;SDS011;11029;47.820;10.534;2023-08-20T23:17:30;5.72;;;4.50;;
21733;SDS011;11029;47.820;10.534;2023-08-20T23:19:58;6.00;;;4.63;;